Cosco Venice — VRME4 — position and weather

sailwx.info

Track history (hours):
 
Tides and Currents Weather Stations Pressure Air Temp Water Temp Dewpoint Dewpoint Depression Visibility Wind Speed Wind Dir Waves Ship Positions

Cosco Venice

Last reported at 2017-Oct-18 00:00 UTC. Time now 2017-Oct-20 01:35 UTC.
Position N 53°06' E 165°18'.

Length 261 m; draft 10 m.

Type: Ship (hazmat cat D). MMSI: 477004700.

Wind from 230 at 16 knots

Barometer 1016.0 mb
Air temperature 7.0 ° C
Visibility: greater than 5.4 NM
Water temperature 12.0 ° C

Date/timePositionNaut miles runAvg speedWind from/ knotsBaromVisibWave heightAir tempDewpointWater temp
2017-Oct-18 00:00N 53°06' E 165°18'35314.7 230 / 161016.0 5.4 7.0 12.0
2017-Oct-17 00:00N 54°00' E 175°06'35314.7 360 / 33992.0 5.4 6.0 11.0
2017-Oct-16 00:00N 53°30' W 175°00'33713.5 320 / 271005.0 5.4 8.0 7.0
2017-Oct-14 23:00N 50°24' W 167°24'33013.7 230 / 281017.0 5.4 12.0 11.0
2017-Oct-13 23:00N 47°18' W 160°30'   180 / 181024.0 5.4 16.0 15.0
2017-Oct-08 16:00N 31°07' W 125°55'713.9
2017-Oct-08 15:29N 31°02' W 125°48'714.2
2017-Oct-08 15:00N 30°58' W 125°42'714.2
2017-Oct-08 14:30N 30°54' W 125°36'814.4
2017-Oct-08 13:57N 30°49' W 125°28'814.3
2017-Oct-08 13:26N 30°44' W 125°22'814.4
2017-Oct-08 12:54N 30°40' W 125°15'614.4
2017-Oct-08 12:30N 30°36' W 125°09'714.4
2017-Oct-08 12:00N 30°32' W 125°03'714.5
2017-Oct-08 11:30N 30°28' W 124°55'714.5
2017-Oct-08 11:00N 30°25' W 124°48'814.6
2017-Oct-08 10:29N 30°21' W 124°41'714.6
2017-Oct-08 10:01N 30°17' W 124°34'714.6
2017-Oct-08 09:30N 30°14' W 124°26'714.4
2017-Oct-08 09:01N 30°10' W 124°19'714.5
2017-Oct-08 08:30N 30°06' W 124°12'714.4
2017-Oct-08 08:00N 30°02' W 124°05'814.5
2017-Oct-08 07:28N 29°58' W 123°57'714.6
2017-Oct-08 07:00N 29°55' W 123°50'914.7
2017-Oct-08 06:22N 29°50' W 123°41'1014.4
2017-Oct-08 05:38N 29°45' W 123°30'214.7
2017-Oct-08 05:30N 29°44' W 123°28'714.6
2017-Oct-08 05:00N 29°40' W 123°21'714.8
2017-Oct-08 04:30N 29°37' W 123°14'714.5
2017-Oct-08 04:00N 29°33' W 123°07'814.6
2017-Oct-08 03:28N 29°29' W 122°59'714.7
2017-Oct-08 03:00N 29°25' W 122°53'714.6
2017-Oct-08 02:30N 29°22' W 122°45'914.6
2017-Oct-08 01:53N 29°17' W 122°36'614.7
2017-Oct-08 01:31N 29°14' W 122°31'1314.5
2017-Oct-08 00:37N 29°07' W 122°18'214.6
2017-Oct-08 00:29N 29°06' W 122°16'  
Track history (hours):
 
Tides and Currents Weather Stations Pressure Air Temp Water Temp Dewpoint Dewpoint Depression Visibility Wind Speed Wind Dir Waves Ship Positions

Cosco Venice

Last reported at 2017-Oct-18 00:00 UTC. Time now 2017-Oct-20 01:35 UTC.
Position N 53°06' E 165°18'.

Length 261 m; draft 10 m.

Type: Ship (hazmat cat D). MMSI: 477004700.

Wind from 230 at 16 knots

Barometer 1016.0 mb
Air temperature 7.0 ° C
Visibility: greater than 5.4 NM
Water temperature 12.0 ° C

Date/timePositionNaut miles runAvg speedWind from/ knotsBaromVisibWave heightAir tempDewpointWater temp
2017-Oct-18 00:00N 53°06' E 165°18'35314.7 230 / 161016.0 5.4 7.0 12.0
2017-Oct-17 00:00N 54°00' E 175°06'35314.7 360 / 33992.0 5.4 6.0 11.0
2017-Oct-16 00:00N 53°30' W 175°00'33713.5 320 / 271005.0 5.4 8.0 7.0
2017-Oct-14 23:00N 50°24' W 167°24'33013.7 230 / 281017.0 5.4 12.0 11.0
2017-Oct-13 23:00N 47°18' W 160°30'   180 / 181024.0 5.4 16.0 15.0
2017-Oct-08 16:00N 31°07' W 125°55'713.9
2017-Oct-08 15:29N 31°02' W 125°48'714.2
2017-Oct-08 15:00N 30°58' W 125°42'714.2
2017-Oct-08 14:30N 30°54' W 125°36'814.4
2017-Oct-08 13:57N 30°49' W 125°28'814.3
2017-Oct-08 13:26N 30°44' W 125°22'814.4
2017-Oct-08 12:54N 30°40' W 125°15'614.4
2017-Oct-08 12:30N 30°36' W 125°09'714.4
2017-Oct-08 12:00N 30°32' W 125°03'714.5
2017-Oct-08 11:30N 30°28' W 124°55'714.5
2017-Oct-08 11:00N 30°25' W 124°48'814.6
2017-Oct-08 10:29N 30°21' W 124°41'714.6
2017-Oct-08 10:01N 30°17' W 124°34'714.6
2017-Oct-08 09:30N 30°14' W 124°26'714.4
2017-Oct-08 09:01N 30°10' W 124°19'714.5
2017-Oct-08 08:30N 30°06' W 124°12'714.4
2017-Oct-08 08:00N 30°02' W 124°05'814.5
2017-Oct-08 07:28N 29°58' W 123°57'714.6
2017-Oct-08 07:00N 29°55' W 123°50'914.7
2017-Oct-08 06:22N 29°50' W 123°41'1014.4
2017-Oct-08 05:38N 29°45' W 123°30'214.7
2017-Oct-08 05:30N 29°44' W 123°28'714.6
2017-Oct-08 05:00N 29°40' W 123°21'714.8
2017-Oct-08 04:30N 29°37' W 123°14'714.5
2017-Oct-08 04:00N 29°33' W 123°07'814.6
2017-Oct-08 03:28N 29°29' W 122°59'714.7
2017-Oct-08 03:00N 29°25' W 122°53'714.6
2017-Oct-08 02:30N 29°22' W 122°45'914.6
2017-Oct-08 01:53N 29°17' W 122°36'614.7
2017-Oct-08 01:31N 29°14' W 122°31'1314.5
2017-Oct-08 00:37N 29°07' W 122°18'214.6
2017-Oct-08 00:29N 29°06' W 122°16'  

Dump ship's entire track history